Time;durP1;ratioP1;P1;durP2;ratioP2;P2;SDS_P1;SDS_P2;PMS_P1;PMS_P2;Temp;Humidity;BMP_temperature;BMP_pressure;BME280_temperature;BME280_humidity;BME280_pressure;Samples;Min_cycle;Max_cycle;Signal;HPM_P1;HPM_P2
2022/12/01 00:00:48;;;;;;;22.77;15.90;;;3.20;80.30;;;2.82;74.82;98536.88;5022836;28;20480;-69
2022/12/01 00:03:15;;;;;;;22.17;15.90;;;3.20;80.40;;;2.88;75.53;98537.25;5038711;28;20853;-69
2022/12/01 00:05:42;;;;;;;25.60;16.03;;;3.20;80.50;;;2.89;75.00;98536.25;5026956;28;20476;-68
2022/12/01 00:08:09;;;;;;;22.30;15.10;;;3.20;80.40;;;2.83;75.21;98535.91;5025384;28;20485;-69
2022/12/01 00:10:35;;;;;;;25.47;16.03;;;3.20;80.50;;;2.72;75.07;98530.78;5023447;28;20445;-69
2022/12/01 00:13:06;;;;;;;23.60;15.73;;;3.20;80.40;;;2.81;75.74;98535.22;5027653;28;20458;-69
2022/12/01 00:15:35;;;;;;;24.73;15.90;;;3.10;80.60;;;2.91;75.04;98531.59;5024244;28;20523;-68
2022/12/01 00:18:05;;;;;;;21.77;14.50;;;3.20;80.70;;;2.83;75.18;98530.56;5024981;28;20819;-70
2022/12/01 00:20:34;;;;;;;21.30;15.57;;;3.20;80.80;;;2.67;76.08;98519.75;5020228;28;20840;-70
2022/12/01 00:23:02;;;;;;;23.97;15.97;;;3.10;80.70;;;2.76;75.77;98528.66;5043200;28;20461;-69
2022/12/01 00:25:31;;;;;;;22.77;15.87;;;3.10;80.80;;;2.75;75.95;98532.31;5038163;28;20465;-70
2022/12/01 00:27:58;;;;;;;25.33;15.93;;;3.10;80.90;;;2.78;75.75;98535.50;5027299;28;20919;-70
2022/12/01 00:30:26;;;;;;;26.03;17.50;;;3.10;80.90;;;2.89;75.31;98528.25;5028041;28;20462;-70
2022/12/01 00:32:53;;;;;;;21.20;14.90;;;3.20;81.10;;;2.86;75.64;98540.06;5042190;28;20517;-69
2022/12/01 00:35:22;;;;;;;22.70;15.30;;;3.10;80.90;;;2.74;76.32;98536.81;5027102;28;20512;-69
2022/12/01 00:37:50;;;;;;;23.50;15.63;;;3.10;81.20;;;2.82;76.03;98539.56;5028158;28;20485;-68
2022/12/01 00:40:17;;;;;;;23.80;15.60;;;3.10;81.10;;;2.83;76.08;98538.56;5024718;28;20457;-68
2022/12/01 00:42:44;;;;;;;20.47;14.47;;;3.10;81.30;;;2.81;75.64;98537.88;5026950;28;20453;-69
2022/12/01 00:45:12;;;;;;;25.50;17.07;;;3.10;81.00;;;2.94;75.83;98544.63;5023732;28;20451;-69
2022/12/01 00:47:39;;;;;;;26.97;16.70;;;3.20;81.10;;;2.93;76.00;98538.47;5026803;28;20457;-69
2022/12/01 00:50:07;;;;;;;24.47;16.53;;;3.10;81.20;;;2.95;76.19;98538.31;5028451;28;20462;-71
2022/12/01 00:52:36;;;;;;;22.20;15.60;;;3.10;81.80;;;2.57;75.45;98494.94;5027349;28;20494;-70
2022/12/01 00:55:04;;;;;;;24.07;15.80;;;3.20;81.60;;;3.04;75.00;98540.06;5024876;28;20443;-69
2022/12/01 00:57:31;;;;;;;21.90;15.40;;;3.20;81.30;;;2.76;75.00;98486.78;5044055;28;20458;-70
2022/12/01 01:00:01;;;;;;;21.10;15.10;;;3.30;81.40;;;3.18;74.71;98548.53;5023274;28;20523;-69
2022/12/01 01:02:28;;;;;;;24.03;16.00;;;3.30;81.00;;;2.95;75.19;98519.63;5013873;28;20476;-69
2022/12/01 01:04:55;;;;;;;21.07;15.37;;;3.30;81.10;;;2.88;75.67;98529.25;5022344;28;20457;-69
2022/12/01 01:07:24;;;;;;;20.63;15.67;;;3.20;81.10;;;2.76;75.86;98555.34;5022533;28;20456;-69
2022/12/01 01:09:52;;;;;;;23.27;15.50;;;3.10;81.40;;;2.88;76.05;98547.94;5023596;28;20458;-69
2022/12/01 01:12:20;;;;;;;23.23;16.27;;;3.00;81.70;;;2.93;76.14;98550.97;5029152;28;20909;-69
2022/12/01 01:14:47;;;;;;;24.47;16.73;;;3.10;81.70;;;3.09;75.78;98548.44;5029570;28;20547;-69
2022/12/01 01:17:14;;;;;;;20.53;14.07;;;3.30;81.40;;;3.01;75.25;98547.53;5029727;28;20524;-67
2022/12/01 01:19:42;;;;;;;22.37;15.67;;;3.30;81.00;;;2.96;75.87;98543.50;5024998;28;20474;-69
2022/12/01 01:22:09;;;;;;;21.97;14.00;;;3.10;81.40;;;2.96;76.05;98546.19;5027306;28;20460;-70
2022/12/01 01:24:36;;;;;;;24.77;15.57;;;3.10;82.00;;;3.13;75.30;98540.97;5042329;28;20438;-69
2022/12/01 01:27:05;;;;;;;23.13;15.63;;;3.20;81.90;;;3.05;76.10;98543.59;5026024;28;20453;-69
2022/12/01 01:29:33;;;;;;;26.10;16.73;;;3.30;81.80;;;2.86;76.25;98545.41;5027501;28;20430;-67
2022/12/01 01:32:00;;;;;;;23.70;16.27;;;3.10;81.60;;;3.06;75.92;98546.09;5030036;28;20558;-68
2022/12/01 01:34:28;;;;;;;23.53;16.47;;;3.30;81.50;;;3.18;75.78;98553.88;5024849;28;20485;-68
2022/12/01 01:36:55;;;;;;;21.43;15.57;;;3.30;81.80;;;3.06;75.74;98547.94;5017628;28;20469;-68
2022/12/01 01:39:22;;;;;;;24.63;15.80;;;3.30;81.40;;;3.02;76.09;98552.72;5014183;28;20494;-69
2022/12/01 01:41:49;;;;;;;21.97;15.83;;;3.20;81.70;;;2.95;76.03;98551.66;5007720;28;20813;-69
2022/12/01 01:44:51;;;;;;;24.03;15.53;;;3.20;81.90;;;3.05;75.78;98551.59;5032750;28;20468;-68
2022/12/01 01:47:24;;;;;;;22.27;14.80;;;3.20;82.30;;;2.97;76.06;98547.03;5016086;28;20467;-68
2022/12/01 01:49:52;;;;;;;25.57;15.73;;;3.10;82.20;;;3.17;75.83;98552.19;5042372;28;20962;-68
2022/12/01 01:52:20;;;;;;;20.00;14.23;;;3.30;82.10;;;3.04;75.85;98544.59;5027480;28;20460;-68
2022/12/01 01:54:51;;;;;;;22.73;15.03;;;3.40;81.50;;;3.16;75.46;98558.53;5024185;28;20473;-67
2022/12/01 01:57:24;;;;;;;23.67;14.77;;;3.40;81.70;;;3.29;75.17;98555.44;5028546;28;20468;-69
2022/12/01 01:59:58;;;;;;;24.03;15.27;;;3.40;82.00;;;2.95;76.05;98562.34;5026786;28;20508;-69
2022/12/01 02:02:25;;;;;;;21.53;14.63;;;3.30;81.50;;;3.20;75.30;98557.22;5025061;28;20477;-69
2022/12/01 02:05:00;;;;;;;22.60;16.83;;;3.40;81.90;;;3.08;76.35;98554.78;5027282;28;20490;-67
2022/12/01 02:07:28;;;;;;;24.07;15.70;;;3.30;82.00;;;2.93;76.57;98564.31;5038507;28;20596;-68
2022/12/01 02:09:56;;;;;;;23.10;15.43;;;3.20;82.30;;;3.08;76.72;98559.28;5039602;28;20461;-68
2022/12/01 02:12:54;;;;;;;23.40;15.80;;;3.20;82.50;;;3.18;75.78;98561.88;5039848;28;20472;-69
2022/12/01 02:15:33;;;;;;;22.33;15.70;;;3.30;82.50;;;3.02;76.59;98554.56;5024738;28;20533;-70
2022/12/01 02:18:18;;;;;;;20.53;15.50;;;3.30;82.60;;;3.22;75.63;98550.72;5039682;28;20463;-68
2022/12/01 02:21:25;;;;;;;24.40;16.17;;;3.40;82.60;;;3.27;75.45;98550.28;5038806;28;20607;-68
2022/12/01 02:24:48;;;;;;;26.20;16.03;;;3.30;82.00;;;3.25;75.88;98554.91;5024840;28;20504;-68
2022/12/01 02:27:30;;;;;;;26.33;16.33;;;3.50;82.20;;;3.22;76.23;98555.22;5035092;28;20453;-70
2022/12/01 02:30:08;;;;;;;23.90;14.60;;;3.50;82.00;;;3.29;75.76;98553.63;5033499;28;20458;-68
2022/12/01 02:32:48;;;;;;;22.30;15.57;;;3.50;82.00;;;3.24;76.04;98545.22;5036656;28;20461;-69
2022/12/01 02:35:24;;;;;;;24.33;16.87;;;3.40;82.20;;;3.14;76.62;98544.50;5052203;28;20456;-69
2022/12/01 02:38:04;;;;;;;24.80;16.30;;;3.30;82.40;;;3.15;76.17;98547.00;5028116;28;20504;-69
2022/12/01 02:40:39;;;;;;;21.53;15.30;;;3.30;82.30;;;2.80;75.61;98474.78;5025988;28;20468;-68
2022/12/01 02:43:18;;;;;;;24.10;15.47;;;3.40;82.30;;;3.30;76.11;98535.75;5036250;28;20507;-69
2022/12/01 02:45:52;;;;;;;25.90;16.87;;;3.40;82.30;;;3.34;76.37;98542.47;5021882;28;20525;-70
2022/12/01 02:48:27;;;;;;;26.13;16.10;;;3.40;82.60;;;3.30;75.57;98541.09;5027654;28;20457;-68
2022/12/01 02:50:56;;;;;;;23.13;15.50;;;3.50;82.20;;;3.31;76.23;98545.44;5023813;28;20461;-69
2022/12/01 02:53:24;;;;;;;22.50;15.83;;;3.50;82.50;;;3.42;75.95;98539.03;5030535;28;20456;-70
2022/12/01 02:55:54;;;;;;;22.17;15.23;;;3.50;82.40;;;2.83;76.47;98461.16;5027254;28;20543;-70
2022/12/01 02:58:22;;;;;;;24.70;16.40;;;3.40;82.80;;;3.44;75.97;98531.69;5030290;28;20466;-69
2022/12/01 03:01:07;;;;;;;25.97;16.63;;;3.50;82.60;;;3.23;76.69;98520.34;5027120;28;20465;-70
2022/12/01 03:03:52;;;;;;;22.17;15.33;;;3.40;82.70;;;3.32;76.65;98521.25;5041871;28;20446;-70
2022/12/01 03:06:27;;;;;;;25.30;16.33;;;3.30;83.30;;;3.35;76.61;98531.63;5041810;28;20465;-69
2022/12/01 03:09:09;;;;;;;24.80;16.23;;;3.40;83.30;;;3.39;76.17;98514.28;5029704;28;20455;-70
2022/12/01 03:11:45;;;;;;;26.87;16.90;;;3.50;82.80;;;3.29;76.02;98524.25;5029894;28;20491;-69
2022/12/01 03:14:23;;;;;;;24.07;15.40;;;3.60;82.60;;;2.88;77.07;98506.09;5036906;28;20456;-69
2022/12/01 03:16:53;;;;;;;24.27;16.60;;;3.30;83.00;;;3.01;78.03;98531.53;5018862;28;20923;-70
2022/12/01 03:19:29;;;;;;;24.50;15.50;;;3.20;84.00;;;2.91;78.71;98531.59;5027569;28;20480;-69
2022/12/01 03:22:04;;;;;;;23.83;16.70;;;3.20;84.40;;;3.00;78.05;98532.50;5027229;28;20535;-69
2022/12/01 03:24:33;;;;;;;28.77;17.60;;;3.10;84.80;;;2.98;77.99;98528.16;5023396;28;20461;-70
2022/12/01 03:27:03;;;;;;;24.00;15.93;;;3.10;84.90;;;2.82;78.25;98520.88;5023989;28;20460;-69
2022/12/01 03:29:35;;;;;;;24.23;15.60;;;3.10;85.40;;;2.75;79.72;98522.47;5025868;28;20468;-70
2022/12/01 03:32:08;;;;;;;21.90;15.80;;;3.00;86.00;;;2.93;79.08;98521.63;5024046;28;20586;-69
2022/12/01 03:34:44;;;;;;;24.83;15.50;;;3.00;86.50;;;3.20;78.17;98518.00;5027046;28;20461;-70
2022/12/01 03:37:18;;;;;;;24.53;16.77;;;3.20;86.40;;;3.15;78.31;98522.13;5041730;28;20460;-67
2022/12/01 03:39:48;;;;;;;22.20;16.03;;;3.20;86.50;;;3.06;78.45;98516.72;5022619;28;20569;-68
2022/12/01 03:42:22;;;;;;;24.93;16.97;;;3.30;85.80;;;3.34;77.71;98521.94;5028175;28;20462;-68
2022/12/01 03:44:54;;;;;;;25.40;16.10;;;3.40;85.30;;;3.12;78.21;98528.63;5024259;28;20466;-70
2022/12/01 03:47:25;;;;;;;26.97;17.17;;;3.30;84.90;;;3.26;77.29;98524.53;5010154;28;20442;-68
2022/12/01 03:49:54;;;;;;;23.60;16.00;;;3.30;85.10;;;2.98;78.52;98530.03;5015690;28;20461;-69
2022/12/01 03:52:33;;;;;;;26.50;18.00;;;3.20;85.20;;;2.92;78.69;98530.63;5022706;28;20919;-69
2022/12/01 03:55:11;;;;;;;26.17;16.90;;;3.10;85.70;;;3.19;78.49;98527.00;5043073;28;20458;-71
2022/12/01 03:57:44;;;;;;;24.37;16.70;;;3.20;86.30;;;3.29;77.09;98521.56;5031801;28;20449;-68
2022/12/01 04:00:14;;;;;;;27.77;17.77;;;3.40;85.30;;;3.08;78.06;98512.06;5025382;28;20492;-68
2022/12/01 04:02:43;;;;;;;25.77;16.63;;;3.30;85.50;;;3.11;77.87;98530.47;5020770;28;20724;-69
2022/12/01 04:05:12;;;;;;;25.87;15.77;;;3.30;85.60;;;3.39;77.55;98527.63;5031018;28;20452;-69
2022/12/01 04:07:40;;;;;;;27.13;16.70;;;3.40;85.60;;;2.84;77.11;98432.63;5042534;28;20465;-69
2022/12/01 04:10:09;;;;;;;24.57;16.90;;;3.50;84.50;;;3.21;77.95;98521.50;5019210;28;20489;-68
2022/12/01 04:12:35;;;;;;;25.83;17.17;;;3.40;84.90;;;3.10;78.43;98519.91;5027987;28;20512;-67
2022/12/01 04:15:07;;;;;;;29.10;17.20;;;3.30;85.50;;;3.14;78.88;98525.81;5036979;28;20521;-68
2022/12/01 04:17:35;;;;;;;28.17;17.57;;;3.30;87.00;;;3.22;78.36;98507.16;5025875;28;21009;-68
2022/12/01 04:20:03;;;;;;;23.27;15.90;;;3.30;87.30;;;3.29;77.76;98518.91;5031270;28;21095;-69
2022/12/01 04:22:31;;;;;;;23.67;16.80;;;3.40;86.20;;;3.34;77.34;98521.94;5025081;28;20489;-69
2022/12/01 04:24:58;;;;;;;26.20;16.80;;;3.50;85.30;;;3.09;78.80;98519.06;5030630;28;20929;-68
2022/12/01 04:27:26;;;;;;;22.20;16.03;;;3.30;86.10;;;3.31;78.61;98521.41;5027170;28;20457;-69
2022/12/01 04:29:53;;;;;;;23.13;16.10;;;3.40;86.90;;;3.48;76.96;98522.34;5026578;28;20548;-68
2022/12/01 04:32:21;;;;;;;29.67;18.10;;;3.50;85.40;;;3.46;77.05;98524.34;5023717;28;20480;-68
2022/12/01 04:34:48;;;;;;;24.33;16.60;;;3.50;85.30;;;3.29;77.66;98502.88;5027302;28;20977;-69
2022/12/01 04:37:16;;;;;;;26.60;15.67;;;3.50;85.40;;;3.17;78.55;98533.50;5020255;28;20573;-68
2022/12/01 04:39:45;;;;;;;22.70;16.23;;;3.30;86.00;;;3.07;78.60;98501.56;5043730;28;20468;-69
2022/12/01 04:42:12;;;;;;;27.20;17.03;;;3.30;87.00;;;3.03;79.09;98498.34;5032303;28;20466;-69
2022/12/01 04:44:40;;;;;;;25.13;16.97;;;3.30;87.10;;;2.90;79.68;98511.25;5027406;28;20456;-69
2022/12/01 04:47:08;;;;;;;23.10;16.43;;;3.10;87.30;;;2.94;79.36;98515.28;5019827;28;20445;-69
2022/12/01 04:49:36;;;;;;;25.00;15.97;;;3.10;88.00;;;2.85;80.20;98511.69;5027699;28;20445;-69
2022/12/01 04:52:04;;;;;;;27.97;17.43;;;3.10;88.60;;;2.78;80.53;98516.00;5026195;28;20544;-69
2022/12/01 04:54:31;;;;;;;26.50;16.70;;;3.00;89.30;;;2.78;80.74;98511.47;5021029;28;20449;-68
2022/12/01 04:57:00;;;;;;;26.03;17.60;;;3.00;90.00;;;2.83;80.72;98519.88;5029353;28;20476;-69
2022/12/01 04:59:29;;;;;;;22.93;15.63;;;3.00;90.20;;;2.92;81.09;98522.59;5021073;28;20481;-70
2022/12/01 05:01:56;;;;;;;22.97;16.10;;;3.00;90.50;;;3.08;79.97;98530.75;5021678;28;20482;-69
2022/12/01 05:04:24;;;;;;;25.53;16.70;;;3.20;90.20;;;2.94;80.26;98528.63;5028708;28;20465;-69
2022/12/01 05:06:54;;;;;;;25.43;17.23;;;3.10;90.20;;;2.94;80.90;98518.81;5028306;28;20456;-69
2022/12/01 05:09:21;;;;;;;25.50;16.53;;;3.10;90.40;;;3.07;80.28;98523.72;5027146;28;20445;-69
2022/12/01 05:11:49;;;;;;;27.40;17.57;;;3.10;90.60;;;2.97;80.69;98521.16;5026279;28;20482;-69
2022/12/01 05:14:17;;;;;;;28.13;17.57;;;3.10;90.20;;;2.84;80.57;98486.00;5043856;28;20767;-69
2022/12/01 05:16:45;;;;;;;25.83;16.90;;;3.10;90.50;;;3.13;80.14;98524.94;5019174;28;20461;-74
2022/12/01 05:21:57;;;;;;;23.87;16.73;;;3.20;89.80;;;3.13;80.26;98524.13;5027268;28;20449;-68
2022/12/01 05:24:24;;;;;;;21.60;16.07;;;3.20;89.90;;;3.00;80.46;98529.84;5028084;28;20445;-69
2022/12/01 05:26:51;;;;;;;25.77;16.53;;;3.20;89.70;;;2.80;81.36;98520.16;5045043;28;20442;-69
2022/12/01 05:29:20;;;;;;;24.83;17.83;;;3.10;90.20;;;3.06;80.67;98516.72;5043145;28;20531;-68
2022/12/01 05:31:47;;;;;;;24.70;16.10;;;3.10;90.70;;;3.08;80.41;98496.03;5015989;28;20461;-70
2022/12/01 05:34:15;;;;;;;23.07;16.90;;;3.20;90.20;;;2.87;81.52;98511.56;5034891;28;21281;-69
2022/12/01 05:36:42;;;;;;;24.80;16.50;;;3.10;90.40;;;2.80;81.25;98504.16;5033622;28;20515;-71
2022/12/01 05:39:10;;;;;;;25.70;16.33;;;3.10;90.30;;;2.93;81.10;98510.94;5022258;28;20454;-68
2022/12/01 05:41:37;;;;;;;27.50;17.77;;;3.10;90.40;;;2.70;81.18;98498.06;5021911;28;20459;-68
2022/12/01 05:44:05;;;;;;;27.00;16.97;;;3.10;90.10;;;2.80;81.30;98504.16;5041363;28;20464;-69
2022/12/01 05:46:34;;;;;;;25.27;17.17;;;3.10;90.40;;;3.00;80.49;98509.34;5028107;28;20532;-69
2022/12/01 05:49:01;;;;;;;22.03;14.63;;;3.10;90.40;;;3.25;79.72;98517.50;5028708;28;20462;-67
2022/12/01 05:51:29;;;;;;;23.27;15.43;;;3.30;90.10;;;3.18;80.10;98511.97;5033239;28;20453;-68
2022/12/01 05:53:56;;;;;;;26.30;16.03;;;3.30;89.20;;;3.20;80.55;98511.81;5026749;28;20894;-68
2022/12/01 05:56:23;;;;;;;23.63;16.60;;;3.40;89.20;;;2.88;80.71;98511.41;5019694;28;20446;-69
2022/12/01 05:58:50;;;;;;;26.87;17.03;;;3.20;89.20;;;2.99;81.54;98513.00;5040755;28;20513;-68
2022/12/01 06:01:18;;;;;;;24.73;16.30;;;3.10;90.40;;;2.90;80.80;98521.94;5024578;28;20481;-69
2022/12/01 06:03:46;;;;;;;29.03;17.37;;;3.10;90.10;;;2.78;81.12;98516.81;5039776;28;20854;-69
2022/12/01 06:06:13;;;;;;;22.40;15.90;;;3.00;90.20;;;2.74;81.05;98511.97;5027784;28;20460;-69
2022/12/01 06:08:41;;;;;;;25.50;16.20;;;3.00;90.60;;;2.68;81.45;98503.56;5026857;28;20464;-67
2022/12/01 06:11:08;;;;;;;23.77;17.07;;;2.90;90.80;;;2.55;82.07;98498.63;5028463;28;20450;-68
2022/12/01 06:13:38;;;;;;;26.40;17.33;;;2.80;90.70;;;2.09;82.03;98420.50;5026469;28;20460;-67
2022/12/01 06:16:07;;;;;;;22.93;16.17;;;2.80;91.50;;;2.65;81.54;98511.88;5025395;28;20854;-68
2022/12/01 06:18:37;;;;;;;25.13;16.90;;;2.80;91.50;;;2.81;81.85;98513.00;5020830;28;20543;-69
2022/12/01 06:21:09;;;;;;;26.03;15.87;;;2.90;91.60;;;2.89;nan;98517.59;5018581;28;20481;-68
2022/12/01 06:23:36;;;;;;;26.53;16.43;;;3.00;92.00;;;3.03;82.26;98522.38;5019582;28;20468;-68
2022/12/01 06:26:04;;;;;;;22.77;16.83;;;3.10;92.70;;;3.07;80.97;98526.41;5040369;28;21100;-69
2022/12/01 06:28:31;;;;;;;25.93;15.80;;;3.20;91.80;;;2.96;80.60;98524.00;5025128;28;20459;-68
2022/12/01 06:30:58;;;;;;;24.47;17.00;;;3.20;90.50;;;2.95;80.54;98523.16;5018522;28;20536;-69
2022/12/01 06:33:25;;;;;;;24.13;15.93;;;3.20;90.20;;;2.92;80.96;98525.28;5036642;28;20461;-68
2022/12/01 06:35:58;;;;;;;25.57;16.80;;;3.10;90.30;;;2.89;81.39;98529.09;5026756;28;20506;-68
2022/12/01 06:38:30;;;;;;;24.20;15.50;;;3.10;90.70;;;3.30;82.51;98527.72;5024919;28;20495;-68
2022/12/01 06:40:57;;;;;;;25.13;16.60;;;3.30;92.10;;;3.01;80.86;98467.44;5025240;28;20476;-68
2022/12/01 06:43:25;;;;;;;25.43;17.10;;;3.50;91.20;;;3.30;80.25;98525.91;5024488;28;20456;-67
2022/12/01 06:45:52;;;;;;;23.30;15.00;;;3.60;90.00;;;3.06;79.87;98527.41;5020515;28;20458;-69
2022/12/01 06:48:20;;;;;;;22.27;15.43;;;3.40;88.30;;;2.76;80.72;98508.13;5015141;28;20473;-68
2022/12/01 06:50:48;;;;;;;23.40;16.37;;;3.20;88.50;;;2.82;81.03;98534.22;5025041;28;20551;-69
2022/12/01 06:53:18;;;;;;;30.90;17.50;;;3.20;89.50;;;2.96;80.73;98534.69;5020877;28;20592;-73
2022/12/01 06:55:47;;;;;;;23.60;17.03;;;3.10;90.10;;;2.89;81.24;98530.94;5023810;28;20521;-67
2022/12/01 06:58:14;;;;;;;26.03;15.73;;;3.20;90.30;;;3.02;80.42;98543.88;5038261;28;21076;-67
2022/12/01 07:00:42;;;;;;;24.00;16.40;;;3.20;90.00;;;2.89;80.54;98533.59;5023703;28;20483;-67
2022/12/01 07:03:10;;;;;;;26.77;16.23;;;3.10;89.90;;;3.01;80.66;98532.38;5023652;28;20466;-67
2022/12/01 07:05:38;;;;;;;22.63;15.97;;;3.20;89.50;;;3.01;80.15;98542.19;5022296;28;20554;-68
2022/12/01 07:08:06;;;;;;;31.23;18.30;;;3.30;89.30;;;2.86;81.08;98534.72;5041164;28;20457;-68
2022/12/01 07:10:34;;;;;;;23.10;16.23;;;3.20;89.10;;;2.91;80.96;98543.13;5025166;28;20506;-67
2022/12/01 07:13:02;;;;;;;24.80;16.33;;;3.20;89.40;;;3.03;80.67;98541.06;5040385;28;20457;-68
2022/12/01 07:15:29;;;;;;;23.40;15.20;;;3.20;89.50;;;2.98;80.57;98544.19;5016148;28;20454;-68
2022/12/01 07:17:57;;;;;;;26.00;17.47;;;3.20;89.00;;;3.06;80.39;98546.09;5037214;28;22244;-67
2022/12/01 07:20:24;;;;;;;25.40;14.73;;;3.20;89.40;;;2.98;80.36;98538.84;5022839;28;20826;-69
2022/12/01 07:22:51;;;;;;;22.97;15.60;;;3.20;88.50;;;3.05;80.30;98546.25;5021376;28;20473;-66
2022/12/01 07:25:18;;;;;;;24.50;16.40;;;3.20;88.90;;;2.90;80.49;98532.59;5015838;28;20484;-68
2022/12/01 07:27:46;;;;;;;20.87;13.37;;;3.30;89.50;;;3.05;80.17;98552.41;5038756;28;20864;-68
2022/12/01 07:30:15;;;;;;;22.83;16.23;;;3.30;89.30;;;3.24;79.64;98553.22;5019519;28;20473;-67
2022/12/01 07:32:42;;;;;;;27.00;15.53;;;3.40;89.80;;;3.31;78.67;98548.97;5016869;28;20809;-68
2022/12/01 07:35:10;;;;;;;22.17;15.80;;;3.40;88.20;;;3.20;78.67;98551.88;5033612;28;20460;-68
2022/12/01 07:37:37;;;;;;;22.60;16.10;;;3.40;87.40;;;3.33;78.52;98549.63;5037912;28;20466;-68
2022/12/01 07:40:06;;;;;;;23.40;16.20;;;3.40;87.20;;;3.13;79.25;98561.50;5037136;28;20883;-69
2022/12/01 07:42:33;;;;;;;26.90;16.30;;;3.40;86.80;;;3.21;78.75;98548.19;5015916;28;20536;-68
2022/12/01 07:45:01;;;;;;;21.17;16.43;;;3.40;87.40;;;3.40;79.31;98553.34;5020162;28;20458;-68
2022/12/01 07:47:29;;;;;;;21.00;15.90;;;3.50;88.50;;;3.37;79.40;98559.00;5019956;28;20488;-68
2022/12/01 07:49:59;;;;;;;20.50;15.10;;;3.50;87.80;;;3.38;78.50;98555.34;5039950;28;20452;-68
2022/12/01 07:52:26;;;;;;;22.53;15.27;;;3.50;87.50;;;3.28;78.50;98561.78;5025576;28;20496;-67
2022/12/01 07:54:53;;;;;;;23.63;14.07;;;3.50;86.40;;;3.34;78.79;98551.31;5021686;28;20457;-67
2022/12/01 07:57:20;;;;;;;22.07;15.20;;;3.50;86.90;;;3.46;78.47;98557.22;5038418;28;20458;-67
2022/12/01 07:59:48;;;;;;;23.73;15.17;;;3.60;87.10;;;3.66;78.21;98557.03;5021028;28;20479;-69
2022/12/01 08:02:15;;;;;;;19.30;15.00;;;3.70;87.00;;;3.42;77.59;98523.00;5020027;28;20461;-70
2022/12/01 08:04:44;;;;;;;23.67;14.80;;;3.80;86.20;;;3.75;77.33;98560.59;5035520;28;20459;-70
2022/12/01 08:07:11;;;;;;;25.07;15.20;;;3.90;85.60;;;3.89;77.10;98560.00;5029394;28;20507;-69
2022/12/01 08:09:38;;;;;;;22.70;15.60;;;3.90;85.50;;;3.87;77.20;98556.66;5022126;28;20466;-70
2022/12/01 08:12:06;;;;;;;25.30;15.20;;;4.00;85.40;;;4.01;75.90;98551.69;5040988;28;20856;-68
2022/12/01 08:14:34;;;;;;;21.50;14.70;;;4.10;84.70;;;3.91;76.11;98558.00;5025493;28;20465;-70
2022/12/01 08:17:01;;;;;;;19.30;13.87;;;4.10;84.40;;;3.75;76.66;98552.59;5022446;28;20458;-71
2022/12/01 08:19:28;;;;;;;23.20;15.60;;;4.00;84.00;;;3.69;76.27;98546.84;5027751;28;20500;-67
2022/12/01 08:21:56;;;;;;;21.10;14.30;;;3.90;84.30;;;3.88;76.65;98555.66;5038282;28;20473;-67
2022/12/01 08:24:24;;;;;;;24.60;15.03;;;3.90;84.10;;;3.90;76.38;98552.81;5017898;28;21241;-67
2022/12/01 08:26:51;;;;;;;20.97;14.40;;;4.00;84.40;;;3.31;75.53;98463.50;5040585;28;20525;-74
2022/12/01 08:29:19;;;;;;;21.80;15.60;;;4.00;84.10;;;3.93;75.24;98552.50;5025537;28;20461;-68
2022/12/01 08:31:46;;;;;;;22.53;15.37;;;4.00;84.00;;;3.97;75.92;98553.88;5021661;28;20457;-68
2022/12/01 08:34:14;;;;;;;24.53;15.77;;;4.00;83.80;;;4.04;75.84;98562.09;5021301;28;21099;-68
2022/12/01 08:36:41;;;;;;;22.67;15.10;;;4.10;83.90;;;3.96;75.96;98560.22;5034888;28;20458;-68
2022/12/01 08:39:09;;;;;;;20.80;15.20;;;4.00;83.60;;;4.06;75.35;98541.38;5022264;28;20957;-70
2022/12/01 08:41:37;;;;;;;24.77;15.10;;;4.10;83.70;;;4.08;75.34;98550.88;5024406;28;20470;-70
2022/12/01 08:44:04;;;;;;;21.23;15.60;;;4.10;83.20;;;4.04;75.39;98554.06;5020998;28;20678;-70
2022/12/01 08:46:34;;;;;;;21.77;14.50;;;4.20;83.40;;;4.00;74.66;98539.31;5023821;28;20512;-70
2022/12/01 08:49:03;;;;;;;26.77;16.20;;;4.20;83.30;;;4.14;74.97;98549.41;5023334;28;20528;-70
2022/12/01 08:51:30;;;;;;;22.57;15.63;;;4.30;83.40;;;4.20;74.47;98553.28;5021372;28;20455;-68
2022/12/01 08:53:58;;;;;;;22.20;15.47;;;4.30;83.00;;;4.00;73.81;98501.88;5021105;28;20445;-68
2022/12/01 08:56:31;;;;;;;28.23;15.03;;;4.40;82.80;;;4.18;74.70;98545.44;5022072;28;20461;-67
2022/12/01 08:58:58;;;;;;;23.40;14.57;;;4.40;82.40;;;4.42;74.01;98551.03;5021316;28;20463;-67
2022/12/01 09:01:26;;;;;;;20.90;14.83;;;4.50;82.40;;;4.50;73.74;98564.41;5021519;28;20551;-68
2022/12/01 09:04:04;;;;;;;23.10;15.63;;;4.50;82.40;;;4.61;73.22;98565.94;5012258;28;20473;-68
2022/12/01 09:06:34;;;;;;;23.67;15.40;;;4.60;82.00;;;4.59;73.98;98568.81;5023256;28;20539;-69
2022/12/01 09:09:01;;;;;;;22.93;15.63;;;4.60;82.20;;;4.97;72.16;98561.16;5038295;28;20547;-67
2022/12/01 09:11:30;;;;;;;21.57;15.73;;;4.90;81.60;;;4.87;71.78;98570.34;5023249;28;20459;-68
2022/12/01 09:13:59;;;;;;;22.73;15.47;;;5.00;80.60;;;4.92;71.79;98568.00;5022048;28;20527;-69
2022/12/01 09:16:26;;;;;;;23.93;16.33;;;5.00;80.50;;;4.61;71.61;98577.50;5020471;28;20571;-69
2022/12/01 09:18:55;;;;;;;20.93;15.30;;;5.00;79.50;;;4.91;71.31;98577.06;5020993;28;20532;-67
2022/12/01 09:21:25;;;;;;;21.20;15.10;;;5.00;80.30;;;4.95;71.33;98573.06;5020708;28;20496;-68
2022/12/01 09:23:53;;;;;;;22.93;14.27;;;5.10;80.20;;;5.12;69.88;98578.44;5024661;28;20477;-69
2022/12/01 09:26:22;;;;;;;20.00;14.10;;;5.20;79.20;;;4.87;70.82;98570.34;5021389;28;20458;-69
2022/12/01 09:28:54;;;;;;;23.20;16.17;;;5.10;79.40;;;4.86;71.05;98568.69;5021404;28;20461;-67
2022/12/01 09:31:23;;;;;;;25.03;15.60;;;5.20;79.60;;;4.66;71.41;98558.28;5030735;28;20478;-68
2022/12/01 09:33:56;;;;;;;22.87;14.73;;;5.10;79.50;;;4.74;70.79;98550.25;5021623;28;20528;-68
2022/12/01 09:36:23;;;;;;;21.80;15.80;;;5.10;79.40;;;4.87;70.72;98555.16;5012872;28;20980;-68
2022/12/01 09:38:51;;;;;;;22.77;16.03;;;5.10;79.20;;;4.99;69.90;98568.19;5017896;28;20511;-69
2022/12/01 09:41:23;;;;;;;25.03;15.50;;;5.10;79.10;;;4.92;70.08;98562.66;5023003;28;20474;-69
2022/12/01 09:43:59;;;;;;;24.23;15.73;;;5.10;79.00;;;4.89;69.98;98571.03;5036063;28;20469;-68
2022/12/01 09:46:34;;;;;;;25.80;15.97;;;5.10;78.80;;;4.73;71.05;98570.00;5019266;28;20488;-68
2022/12/01 09:49:03;;;;;;;20.53;14.53;;;5.00;78.60;;;4.95;69.88;98565.84;5024347;28;20519;-68
2022/12/01 09:51:33;;;;;;;21.20;14.10;;;5.10;79.00;;;5.04;69.20;98557.84;5022274;28;20868;-68
2022/12/01 09:54:02;;;;;;;21.17;14.87;;;5.20;78.40;;;5.10;69.33;98554.47;5018816;28;20558;-70
2022/12/01 09:56:32;;;;;;;20.80;16.20;;;5.20;78.40;;;5.23;68.07;98560.19;5038294;28;20465;-69
2022/12/01 09:59:02;;;;;;;20.33;14.60;;;5.30;78.00;;;5.14;69.26;98560.34;5039959;28;20504;-68
2022/12/01 10:01:35;;;;;;;21.37;14.70;;;5.30;77.70;;;4.96;68.63;98545.28;5020373;28;20551;-68
2022/12/01 10:04:09;;;;;;;22.60;14.73;;;5.30;77.70;;;5.29;68.67;98553.31;5018300;28;20450;-70
2022/12/01 10:06:42;;;;;;;24.10;14.90;;;5.40;77.60;;;5.42;68.20;98542.06;5021932;28;21056;-69
2022/12/01 10:09:23;;;;;;;23.90;15.90;;;5.40;77.80;;;5.30;68.45;98538.91;5038657;28;20449;-68
2022/12/01 10:11:55;;;;;;;22.53;15.93;;;5.50;77.60;;;5.44;68.29;98533.88;5026343;28;20573;-68
2022/12/01 10:14:23;;;;;;;23.80;15.40;;;5.60;77.50;;;5.71;67.22;98529.13;5037651;28;20449;-68
2022/12/01 10:17:02;;;;;;;20.47;14.93;;;5.70;77.50;;;5.46;67.72;98515.78;5023167;28;20985;-70
2022/12/01 10:19:37;;;;;;;19.27;14.03;;;5.70;77.10;;;5.59;67.23;98525.94;5040994;28;20482;-71
2022/12/01 10:22:30;;;;;;;19.97;14.20;;;5.70;77.20;;;5.42;67.44;98525.16;5030056;28;20470;-71
2022/12/01 10:25:06;;;;;;;28.30;15.77;;;5.60;76.80;;;5.42;68.12;98523.31;5020546;28;20461;-72
2022/12/01 10:27:48;;;;;;;20.50;15.33;;;5.60;77.20;;;5.45;68.44;98522.13;5039791;28;20512;-72
2022/12/01 10:30:19;;;;;;;21.50;15.17;;;5.60;77.50;;;5.45;67.51;98511.41;5038646;28;20449;-72
2022/12/01 10:32:52;;;;;;;23.33;15.83;;;5.60;77.10;;;5.52;67.59;98510.56;5042301;28;20469;-74
2022/12/01 10:35:23;;;;;;;20.77;15.33;;;5.70;77.10;;;5.38;68.17;98508.59;5045956;28;20446;-72